Avondale, Colorado
Current Conditions -  °F | °C
As of 5:06 PM on Monday 22 Dec 2014 (Local Time) from KPUB Reporting Station
Light Snow Light Snow  
Wind Chill: -5°   Ceiling: 1400
Heat Index:   Visibility: 4mi
Dew Point:   Wind: 13mph
Humidity: 96%   Direction: 80°E
Pressure: 29.75"   Gusts: NA
Location:  38.24°N, 104.35°W
Report Text: KPUB 230006Z AUTO 08011KT 4SM -SN BR SCT006 BKN014 OVC029 01/00 A2975 RMK AO2 RAB2356E01 P0000 T00060000 $
Loading
Personal Weather Stations






























Interactive Weather Map New forecast layout! Learn more

10-Day Weather Forecast

Advertisements
Track Severe Weather on mobile